createdAt,value
2017-07-18T00:00:00.595Z,73.01
2017-07-18T00:02:25.025Z,71.5
2017-07-18T00:04:49.415Z,72.17
2017-07-18T00:07:13.763Z,72.36
2017-07-18T00:09:38.089Z,73.26
2017-07-18T00:12:02.479Z,73.39
2017-07-18T00:14:26.761Z,73.2
2017-07-18T00:16:53.212Z,73.97
2017-07-18T00:19:17.534Z,73.1
2017-07-18T00:21:41.885Z,73.01
2017-07-18T00:23:51.881Z,73.33
2017-07-18T00:26:16.217Z,72.46
2017-07-18T00:28:32.066Z,72.27
2017-07-18T00:30:47.924Z,73.3
2017-07-18T00:33:03.783Z,73.3
2017-07-18T00:35:28.062Z,73.3
2017-07-18T00:37:52.370Z,75.29
2017-07-18T00:40:16.649Z,75.2
2017-07-18T00:42:32.582Z,75
2017-07-18T00:44:48.525Z,74.07
2017-07-18T00:47:13.836Z,74.55
2017-07-18T00:49:29.676Z,74.55
2017-07-18T00:51:56.071Z,74.94
2017-07-18T00:54:11.950Z,74.27
2017-07-18T00:56:37.360Z,74.36
2017-07-18T00:59:01.748Z,75.29
2017-07-18T01:01:26.141Z,74.27
2017-07-18T01:03:52.496Z,73.88
2017-07-18T01:06:16.750Z,74.81
2017-07-18T01:08:41.056Z,75.39
2017-07-18T01:11:05.434Z,75.48
2017-07-18T01:13:30.750Z,75.97
2017-07-18T01:15:56.061Z,75.97
2017-07-18T01:18:20.453Z,76.8
2017-07-18T01:20:45.760Z,75.68
2017-07-18T01:23:09.956Z,76.51
2017-07-18T01:25:27.886Z,77.28
2017-07-18T01:27:26.822Z,77.19
2017-07-18T01:29:43.692Z,77.38
2017-07-18T01:32:07.977Z,78.11
2017-07-18T01:36:00.089Z,78.25
2017-07-18T01:38:24.331Z,78.25
2017-07-18T01:40:48.511Z,78.06
2017-07-18T01:43:12.710Z,78.5
2017-07-18T01:45:36.946Z,78.73
2017-07-18T01:48:01.145Z,78.79
2017-07-18T01:50:27.377Z,80.49
2017-07-18T01:52:51.648Z,80.97
2017-07-18T01:55:15.952Z,79.85
2017-07-18T01:57:40.150Z,79.66
2017-07-18T02:00:05.368Z,79.37
2017-07-18T02:02:29.590Z,79.37
2017-07-18T02:04:46.340Z,79.85
2017-07-18T02:06:53.659Z,81.45
2017-07-18T02:09:17.807Z,81.11
2017-07-18T02:11:42.100Z,84.11
2017-07-18T02:14:06.304Z,83.67
2017-07-18T02:16:30.506Z,83.53
2017-07-18T02:18:54.694Z,82.61
2017-07-18T02:21:18.875Z,83.39
2017-07-18T02:23:43.122Z,83.96
2017-07-18T02:25:58.801Z,84.59
2017-07-18T02:28:22.982Z,85.08
2017-07-18T02:30:49.235Z,85.08
2017-07-18T02:32:59.175Z,85.85
2017-07-18T02:35:23.358Z,85.46
2017-07-18T02:37:47.494Z,87.16
2017-07-18T02:40:11.648Z,87.2
2017-07-18T02:42:21.604Z,87.4
2017-07-18T02:44:45.777Z,84.98
2017-07-18T02:47:09.932Z,87.3
2017-07-18T02:49:25.732Z,87.97
2017-07-18T02:51:27.129Z,87.01
2017-07-18T02:53:42.853Z,88.7
2017-07-18T02:55:41.672Z,87.88
2017-07-18T02:57:57.358Z,88.99
2017-07-18T03:00:13.029Z,88.45
2017-07-18T03:02:37.149Z,88.36
2017-07-18T03:04:52.809Z,89.76
2017-07-18T03:07:16.972Z,89.95
2017-07-18T03:09:32.765Z,92.41
2017-07-18T03:11:49.530Z,93.09
2017-07-18T03:14:14.679Z,91.5
2017-07-18T03:16:39.890Z,91.02
2017-07-18T03:19:06.017Z,91.98
2017-07-18T03:21:30.156Z,91.69
2017-07-18T03:23:54.379Z,94.54
2017-07-18T03:26:18.492Z,92.08
2017-07-18T03:28:42.649Z,91.78
2017-07-18T03:30:58.334Z,91.98
2017-07-18T03:33:24.467Z,91.78
2017-07-18T03:35:41.236Z,92.65
2017-07-18T03:37:42.629Z,92.27
2017-07-18T03:40:06.752Z,91.88
2017-07-18T03:42:30.887Z,90
2017-07-18T03:44:54.998Z,91.2
2017-07-18T03:47:10.688Z,92.08
2017-07-18T03:49:26.369Z,90.05
2017-07-18T03:51:50.470Z,90.24
2017-07-18T03:54:14.589Z,89.76
2017-07-18T03:56:38.791Z,88.93
2017-07-18T03:58:54.534Z,90.05
2017-07-18T04:01:18.636Z,91.11
2017-07-18T04:03:42.854Z,91.4
2017-07-18T04:06:07.029Z,91.3
2017-07-18T04:08:22.814Z,90.92
2017-07-18T04:10:46.930Z,89.32
2017-07-18T04:13:11.091Z,89.23
2017-07-18T04:15:42.039Z,88.4
2017-07-18T04:18:06.201Z,87.63
2017-07-18T04:20:30.399Z,86.76
2017-07-18T04:22:54.596Z,88.11
2017-07-18T04:25:20.820Z,85.94
2017-07-18T04:27:37.632Z,85.64
2017-07-18T04:30:01.926Z,84.48
2017-07-18T04:32:26.222Z,85.84
2017-07-18T04:34:50.493Z,81.42
2017-07-18T04:37:15.819Z,74.9
2017-07-18T04:39:41.224Z,74.86
2017-07-18T04:41:57.219Z,72.22
2017-07-18T04:44:22.638Z,64
2017-07-18T04:46:38.720Z,58.8
2017-07-18T04:49:03.337Z,56.68
2017-07-18T04:51:28.141Z,55.1
2017-07-18T04:53:53.050Z,50.95
2017-07-18T04:56:18.068Z,49.82
2017-07-18T04:58:43.174Z,46.44
2017-07-18T05:00:51.335Z,45.26
2017-07-18T05:03:10.133Z,46.98
2017-07-18T05:05:29.127Z,43.12
2017-07-18T05:07:54.642Z,40.96
2017-07-18T05:10:21.181Z,38.95
2017-07-18T05:12:38.308Z,41.22
2017-07-18T05:15:04.029Z,35.68
2017-07-18T05:17:29.851Z,33.75
2017-07-18T05:19:55.629Z,39.2
2017-07-18T05:22:21.370Z,40.64
2017-07-18T05:24:48.144Z,36.91
2017-07-18T05:27:13.834Z,37.68
2017-07-18T05:29:46.655Z,43.94
2017-07-18T05:32:12.398Z,45.86
2017-07-18T05:34:40.137Z,40.47
2017-07-18T05:37:13.652Z,38.14
2017-07-18T05:39:39.576Z,34.81
2017-07-18T05:42:03.613Z,34.79
2017-07-18T05:44:29.637Z,35.17
2017-07-18T05:46:55.222Z,28.39
2017-07-18T05:49:21.405Z,28.83
2017-07-18T05:53:15.486Z,30.47
2017-07-18T05:55:33.353Z,29.04
2017-07-18T05:57:59.739Z,26.63
2017-07-18T06:00:26.198Z,26.07
2017-07-18T06:02:28.215Z,24.82
2017-07-18T06:04:46.194Z,26.2
2017-07-18T06:07:12.830Z,28.36
2017-07-18T06:09:30.900Z,29.22
2017-07-18T06:11:57.622Z,25.84
2017-07-18T06:14:15.767Z,23.14
2017-07-18T06:16:42.542Z,25.2
2017-07-18T06:19:09.401Z,20.35
2017-07-18T06:21:36.524Z,19.67
2017-07-18T06:24:03.574Z,20.04
2017-07-18T06:26:37.489Z,20.33
2017-07-18T06:29:04.643Z,20.72
2017-07-18T06:31:31.820Z,21.76
2017-07-18T06:33:58.977Z,21.67
2017-07-18T06:36:17.627Z,20.05
2017-07-18T06:38:44.890Z,18.29
2017-07-18T06:41:13.152Z,19.65
2017-07-18T06:43:31.910Z,18.27
2017-07-18T06:45:59.378Z,17.1
2017-07-18T06:48:26.942Z,20.23
2017-07-18T06:50:54.415Z,23.19
2017-07-18T06:53:21.973Z,23.79
2017-07-18T06:55:40.900Z,26.17
2017-07-18T06:58:09.529Z,27.92
2017-07-18T07:00:28.586Z,28.69
2017-07-18T07:02:57.064Z,25.62
2017-07-18T07:05:15.790Z,26.76
2017-07-18T07:07:43.975Z,29.06
2017-07-18T07:10:02.429Z,30.52
2017-07-18T07:12:29.262Z,30.99
2017-07-18T07:14:49.368Z,31.79
2017-07-18T07:18:51.789Z,31.1
2017-07-18T07:21:18.222Z,31.87
2017-07-18T07:23:44.560Z,34.25
2017-07-18T07:26:02.211Z,33.39
2017-07-18T07:28:28.345Z,30.33
2017-07-18T07:30:54.403Z,31.97
2017-07-18T07:33:27.560Z,33.87
2017-07-18T07:35:53.559Z,32.53
2017-07-18T07:38:19.850Z,30.52
2017-07-18T07:40:45.820Z,33.37
2017-07-18T07:43:11.797Z,31.68
2017-07-18T07:45:37.801Z,30.22
2017-07-18T07:48:03.841Z,32.43
2017-07-18T07:50:29.953Z,31.01
2017-07-18T07:52:56.095Z,27.35
2017-07-18T07:55:22.211Z,30.4
2017-07-18T07:57:48.453Z,30.53
2017-07-18T08:00:06.095Z,28.32
2017-07-18T08:02:32.333Z,29.86
2017-07-18T08:04:58.668Z,27.06
2017-07-18T08:07:16.513Z,26.69
2017-07-18T08:09:34.263Z,27.41
2017-07-18T08:11:43.472Z,26.01
2017-07-18T08:14:09.865Z,26.79
2017-07-18T08:16:36.268Z,25.43
2017-07-18T08:19:02.671Z,24.57
2017-07-18T08:21:29.148Z,25.51
2017-07-18T08:23:56.633Z,25.62
2017-07-18T08:26:23.132Z,25.63
2017-07-18T08:28:50.671Z,25.34
2017-07-18T08:32:59.049Z,27.15
2017-07-18T08:35:29.017Z,27.99
2017-07-18T08:38:03.821Z,27.62
2017-07-18T08:40:30.230Z,30.12
2017-07-18T08:42:56.543Z,27.62
2017-07-18T08:45:22.983Z,30.49
2017-07-18T08:48:00.188Z,26.39
2017-07-18T08:50:27.309Z,29.92
2017-07-18T08:53:03.367Z,26.94
2017-07-18T08:55:29.603Z,23.13
2017-07-18T08:57:55.846Z,25.32
2017-07-18T09:00:22.362Z,23.32
2017-07-18T09:02:48.844Z,24.41
2017-07-18T09:05:15.048Z,23.47
2017-07-18T09:07:41.485Z,22.64
2017-07-18T09:10:07.934Z,23.76
2017-07-18T09:12:34.367Z,25.29
2017-07-18T09:14:52.301Z,24.43
2017-07-18T09:17:18.740Z,23.38
2017-07-18T09:19:29.356Z,22.22
2017-07-18T09:21:55.739Z,23.47
2017-07-18T09:24:22.090Z,22.31
2017-07-18T09:26:32.707Z,22.31
2017-07-18T09:28:59.062Z,23.46
2017-07-18T09:31:16.816Z,24.32
2017-07-18T09:33:18.817Z,22.88
2017-07-18T09:35:45.197Z,22.5
2017-07-18T09:38:02.945Z,24.15
2017-07-18T09:40:20.810Z,23.47
2017-07-18T09:42:47.232Z,25.37
2017-07-18T09:45:05.288Z,23.54
2017-07-18T09:47:31.583Z,22.5
2017-07-18T09:49:57.924Z,22.6
2017-07-18T09:52:24.267Z,24.98
2017-07-18T09:54:50.589Z,27.1
2017-07-18T09:57:16.914Z,27.28
2017-07-18T09:59:43.159Z,26.25
2017-07-18T10:02:09.278Z,29.1
2017-07-18T10:04:35.415Z,31.22
2017-07-18T10:07:01.449Z,28.72
2017-07-18T10:09:27.354Z,31.04
2017-07-18T10:11:53.402Z,32.29
2017-07-18T10:14:19.306Z,31.32
2017-07-18T10:16:45.235Z,32.49
2017-07-18T10:19:11.085Z,28.85
2017-07-18T10:21:36.891Z,31.81
2017-07-18T10:24:02.797Z,30.82
2017-07-18T10:26:28.625Z,31.96
2017-07-18T10:28:30.409Z,31.68
2017-07-18T10:30:56.233Z,28.8
2017-07-18T10:33:13.495Z,31.02
2017-07-18T10:35:39.231Z,31.7
2017-07-18T10:38:04.980Z,32.14
2017-07-18T10:40:30.707Z,30.74
2017-07-18T10:42:47.887Z,31.86
2017-07-18T10:45:13.542Z,31.57
2017-07-18T10:47:39.381Z,31.19
2017-07-18T10:50:05.410Z,31.06
2017-07-18T10:52:32.130Z,29.83
2017-07-18T10:54:58.372Z,30.86
2017-07-18T10:57:24.004Z,29.82
2017-07-18T10:59:49.637Z,28.89
2017-07-18T11:02:15.314Z,28.67
2017-07-18T11:04:41.052Z,29.43
2017-07-18T11:08:42.686Z,31.24
2017-07-18T11:11:08.733Z,32.21
2017-07-18T11:13:34.493Z,31.82
2017-07-18T11:16:00.215Z,30.58
2017-07-18T11:18:25.637Z,31.14
2017-07-18T11:20:51.316Z,30.6
2017-07-18T11:23:16.866Z,29.54
2017-07-18T11:25:42.413Z,29.71
2017-07-18T11:28:08.078Z,30.37
2017-07-18T11:30:33.948Z,31.14
2017-07-18T11:32:59.849Z,31.9
2017-07-18T11:35:27.527Z,31.7
2017-07-18T11:37:53.386Z,31.51
2017-07-18T11:40:19.005Z,31.42
2017-07-18T11:42:44.575Z,31.6
2017-07-18T11:45:11.603Z,30.85
2017-07-18T11:47:37.021Z,30.96
2017-07-18T11:50:02.643Z,30.37
2017-07-18T11:52:28.188Z,31.42
2017-07-18T11:54:53.689Z,30.65
2017-07-18T11:57:19.076Z,30.38
2017-07-18T11:59:44.576Z,29.69
2017-07-18T12:02:10.130Z,29.97
2017-07-18T12:04:35.604Z,30.63
2017-07-18T12:07:01.138Z,28.92
2017-07-18T12:09:26.627Z,28.13
2017-07-18T12:11:52.161Z,29
2017-07-18T12:14:18.470Z,30.54
2017-07-18T12:16:45.930Z,29.96
2017-07-18T12:19:11.404Z,30.34
2017-07-18T12:21:37.149Z,29.58
2017-07-18T12:24:03.789Z,28.33
2017-07-18T12:26:31.662Z,28.7
2017-07-18T12:28:57.533Z,30.03
2017-07-18T12:31:23.262Z,29.57
2017-07-18T12:33:49.453Z,29.19
2017-07-18T12:36:15.284Z,28.99
2017-07-18T12:38:42.089Z,28.62
2017-07-18T12:41:07.677Z,28.05
2017-07-18T12:43:33.253Z,28.24
2017-07-18T12:45:58.825Z,28.13
2017-07-18T12:48:24.403Z,28.03
2017-07-18T12:50:50.063Z,27.84
2017-07-18T12:53:15.552Z,28.8
2017-07-18T12:55:41.715Z,29.78
2017-07-18T12:58:06.658Z,30.15
2017-07-18T13:00:32.271Z,30.04
2017-07-18T13:02:57.897Z,30.13
2017-07-18T13:05:23.522Z,31.1
2017-07-18T13:07:49.136Z,30.24
2017-07-18T13:10:14.773Z,28.92
2017-07-18T13:12:40.255Z,28.99
2017-07-18T13:15:05.771Z,29.27
2017-07-18T13:17:31.321Z,28.69
2017-07-18T13:19:56.828Z,29.93
2017-07-18T13:22:22.457Z,28.13
2017-07-18T13:24:47.949Z,27.66
2017-07-18T13:27:13.467Z,28.88
2017-07-18T13:29:39.108Z,28.1
2017-07-18T13:32:04.689Z,29.75
2017-07-18T13:34:30.205Z,28.11
2017-07-18T13:36:55.744Z,28.59
2017-07-18T13:39:21.359Z,28.02
2017-07-18T13:41:46.872Z,28.79
2017-07-18T13:44:12.516Z,28.38
2017-07-18T13:46:38.110Z,27.62
2017-07-18T13:49:03.724Z,28.03
2017-07-18T13:51:29.334Z,27.72
2017-07-18T13:53:55.020Z,28
2017-07-18T13:56:20.585Z,28
2017-07-18T13:58:46.195Z,28.2
2017-07-18T14:01:11.831Z,28.96
2017-07-18T14:03:37.446Z,28.77
2017-07-18T14:05:54.465Z,28.97
2017-07-18T14:08:20.065Z,28.02
2017-07-18T14:10:45.687Z,27.42
2017-07-18T14:13:11.300Z,27.41
2017-07-18T14:15:36.920Z,28.28
2017-07-18T14:18:02.536Z,27.35
2017-07-18T14:20:19.659Z,26.86
2017-07-18T14:22:45.275Z,27.99
2017-07-18T14:25:10.892Z,28.19
2017-07-18T14:27:36.501Z,29.06
2017-07-18T14:29:38.570Z,28.68
2017-07-18T14:32:04.101Z,27.44
2017-07-18T14:34:29.596Z,27.04
2017-07-18T14:36:55.225Z,26.08
2017-07-18T14:39:20.847Z,26.75
2017-07-18T14:41:37.932Z,26.48
2017-07-18T14:44:03.585Z,27.17
2017-07-18T14:46:20.701Z,27.06
2017-07-18T14:48:46.348Z,28.38
2017-07-18T14:51:11.958Z,29.55
2017-07-18T14:53:37.409Z,30.51
2017-07-18T14:56:03.024Z,29.85
2017-07-18T14:58:28.480Z,28.41
2017-07-18T15:00:54.085Z,28.13
2017-07-18T15:03:19.571Z,27.17
2017-07-18T15:05:45.029Z,27.04
2017-07-18T15:08:10.547Z,28.17
2017-07-18T15:10:36.022Z,28
2017-07-18T15:13:01.494Z,29.44
2017-07-18T15:15:26.981Z,30.59
2017-07-18T15:17:52.426Z,30.59
2017-07-18T15:20:17.948Z,30.31
2017-07-18T15:22:43.426Z,30.97
2017-07-18T15:25:08.846Z,30.49
2017-07-18T15:27:34.271Z,29.74
2017-07-18T15:29:59.664Z,30.69
2017-07-18T15:32:25.119Z,30.98
2017-07-18T15:34:50.527Z,31.36
2017-07-18T15:37:00.865Z,30.88
2017-07-18T15:39:19.741Z,30.11
2017-07-18T15:41:47.051Z,30.02
2017-07-18T15:44:12.421Z,29.82
2017-07-18T15:46:37.733Z,29.62
2017-07-18T15:49:03.187Z,30.4
2017-07-18T15:53:04.380Z,31.15
2017-07-18T15:55:29.767Z,30.97
2017-07-18T15:57:31.441Z,31.25
2017-07-18T15:59:56.755Z,30.87
2017-07-18T16:03:40.972Z,29.43
2017-07-18T16:06:06.330Z,29.82
2017-07-18T16:08:31.683Z,30.1
2017-07-18T16:10:56.973Z,30.08
2017-07-18T16:12:58.673Z,30.38
2017-07-18T16:15:24.017Z,30.66
2017-07-18T16:17:49.286Z,31.23
2017-07-18T16:20:06.098Z,31.82
2017-07-18T16:22:31.406Z,32.18
2017-07-18T16:24:56.855Z,31.61
2017-07-18T16:27:22.273Z,30.84
2017-07-18T16:29:47.666Z,31.04
2017-07-18T16:32:12.965Z,32.01
2017-07-18T16:34:38.294Z,32.09
2017-07-18T16:37:03.560Z,31.53
2017-07-18T16:39:20.422Z,31.25
2017-07-18T16:41:45.841Z,31.26
2017-07-18T16:44:11.160Z,31.46
2017-07-18T16:46:27.976Z,32.02
2017-07-18T16:48:36.278Z,31.81
2017-07-18T16:51:01.592Z,32.2
2017-07-18T16:53:18.389Z,32.2
2017-07-18T16:55:43.694Z,32.3
2017-07-18T16:58:08.920Z,32.18
2017-07-18T17:00:34.217Z,33.07
2017-07-18T17:02:59.406Z,33.46
2017-07-18T17:07:00.642Z,33.46
2017-07-18T17:09:25.865Z,33.48
2017-07-18T17:11:51.044Z,34.05
2017-07-18T17:14:16.254Z,34.25
2017-07-18T17:16:41.528Z,33.56
2017-07-18T17:19:06.749Z,33.46
2017-07-18T17:21:23.552Z,33.84
2017-07-18T17:23:25.717Z,34.25
2017-07-18T17:25:50.938Z,34.03
2017-07-18T17:28:16.118Z,34.42
2017-07-18T17:30:32.769Z,34.69
2017-07-18T17:32:58.603Z,34.9
2017-07-18T17:35:23.764Z,34.51
2017-07-18T17:37:40.433Z,35.27
2017-07-18T17:39:42.087Z,34.61
2017-07-18T17:42:07.304Z,35.27
2017-07-18T17:44:32.445Z,35.57
2017-07-18T17:46:57.584Z,35.66
2017-07-18T17:49:22.715Z,35.39
2017-07-18T17:51:39.291Z,35.47
2017-07-18T17:54:04.482Z,36.06
2017-07-18T17:56:29.793Z,36.06
2017-07-18T17:58:55.003Z,36.14
2017-07-18T18:01:20.193Z,36.06
2017-07-18T18:03:45.474Z,35.96
2017-07-18T18:06:10.463Z,36.24
2017-07-18T18:08:36.305Z,36.55
2017-07-18T18:11:01.340Z,36.55
2017-07-18T18:13:17.937Z,36.45
2017-07-18T18:15:43.154Z,37.21
2017-07-18T18:17:59.852Z,37.21
2017-07-18T18:20:24.976Z,36.84
2017-07-18T18:22:50.018Z,37.02
2017-07-18T18:25:15.534Z,36.92
2017-07-18T18:27:40.653Z,37.41
2017-07-18T18:30:05.744Z,38.28
2017-07-18T18:34:10.139Z,37.59
2017-07-18T18:36:18.255Z,37.59
2017-07-18T18:38:43.350Z,38.47
2017-07-18T18:41:08.464Z,38.55
2017-07-18T18:43:25.034Z,38.2
2017-07-18T18:45:50.121Z,38.67
2017-07-18T18:48:15.153Z,38.47
2017-07-18T18:50:40.293Z,39.04
2017-07-18T18:53:05.494Z,38.57
2017-07-18T18:55:30.546Z,39.04
2017-07-18T18:57:38.603Z,39.51
2017-07-18T19:00:03.615Z,39.43
2017-07-18T19:02:14.316Z,39.31
2017-07-18T19:04:39.332Z,40.78
2017-07-18T19:06:55.866Z,40.95
2017-07-18T19:09:20.843Z,40.78
2017-07-18T19:11:45.846Z,40.95
2017-07-18T19:14:10.864Z,40.66
2017-07-18T19:16:35.840Z,41.62
2017-07-18T19:19:00.771Z,41.72
2017-07-18T19:21:25.716Z,41.82
2017-07-18T19:23:50.682Z,41.82
2017-07-18T19:26:07.199Z,42.38
2017-07-18T19:28:32.128Z,42.38
2017-07-18T19:30:57.077Z,42.55
2017-07-18T19:33:22.014Z,43.04
2017-07-18T19:35:38.415Z,42.75
2017-07-18T19:37:54.814Z,42.75
2017-07-18T19:40:19.717Z,42.94
2017-07-18T19:42:21.443Z,42.85
2017-07-18T19:44:46.340Z,43.04
2017-07-18T19:47:11.255Z,42.94
2017-07-18T19:49:36.117Z,43.43
2017-07-18T19:51:52.512Z,43.82
2017-07-18T19:54:17.397Z,43.92
2017-07-18T19:56:33.774Z,43.53
2017-07-18T19:58:58.691Z,44.02
2017-07-18T20:01:23.601Z,43.63
2017-07-18T20:03:25.287Z,43.63
2017-07-18T20:05:45.698Z,43.99
2017-07-18T20:08:02.107Z,44.48
2017-07-18T20:10:26.958Z,44.97
2017-07-18T20:12:51.784Z,44.97
2017-07-18T20:15:16.577Z,44.85
2017-07-18T20:17:41.363Z,44.97
2017-07-18T20:20:06.175Z,45.81
2017-07-18T20:22:31.021Z,45.44
2017-07-18T20:24:55.835Z,45.44
2017-07-18T20:27:12.137Z,45.64
2017-07-18T20:29:36.945Z,46.49
2017-07-18T20:32:01.707Z,46.88
2017-07-18T20:34:26.456Z,46.59
2017-07-18T20:36:51.222Z,46.2
2017-07-18T20:39:07.618Z,46.12
2017-07-18T20:41:32.438Z,46.3
2017-07-18T20:43:57.199Z,46.22
2017-07-18T20:46:22.001Z,46.59
2017-07-18T20:48:46.838Z,46.49
2017-07-18T20:50:48.390Z,46.12
2017-07-18T20:53:04.795Z,46.69
2017-07-18T20:55:29.573Z,47.07
2017-07-18T20:57:54.396Z,47.56
2017-07-18T21:00:19.150Z,47.27
2017-07-18T21:02:43.918Z,47.36
2017-07-18T21:05:08.670Z,47.75
2017-07-18T21:07:33.461Z,47.46
2017-07-18T21:09:58.352Z,47.27
2017-07-18T21:11:59.928Z,47.09
2017-07-18T21:14:21.839Z,47.17
2017-07-18T21:16:46.650Z,47.07
2017-07-18T21:19:02.956Z,47.27
2017-07-18T21:21:27.782Z,46.88
2017-07-18T21:23:52.561Z,47.27
2017-07-18T21:26:17.325Z,48.34
2017-07-18T21:28:42.106Z,48.12
2017-07-18T21:31:06.857Z,48.14
2017-07-18T21:33:31.732Z,48.88
2017-07-18T21:35:56.504Z,48.88
2017-07-18T21:38:06.670Z,48.51
2017-07-18T21:40:31.464Z,48.78
2017-07-18T21:42:56.166Z,48.78
2017-07-18T21:45:20.905Z,48.88
2017-07-18T21:47:45.668Z,48.32
2017-07-18T21:50:10.473Z,48.61
2017-07-18T21:52:26.765Z,48.51
2017-07-18T21:54:51.494Z,47.92
2017-07-18T21:57:16.224Z,48.02
2017-07-18T21:59:40.967Z,47.73
2017-07-18T22:02:05.695Z,48.22
2017-07-18T22:04:21.941Z,48.14
2017-07-18T22:06:38.251Z,48.41
2017-07-18T22:09:02.966Z,48.61
2017-07-18T22:11:27.693Z,48.71
2017-07-18T22:13:52.377Z,49
2017-07-18T22:16:17.085Z,49.66
2017-07-18T22:18:41.845Z,49.37
2017-07-18T22:21:06.554Z,50.04
2017-07-18T22:23:14.314Z,50.58
2017-07-18T22:25:39.008Z,50.21
2017-07-18T22:27:55.221Z,50.78
2017-07-18T22:30:19.891Z,50.8
2017-07-18T22:32:44.525Z,50.12
2017-07-18T22:35:09.194Z,50.78
2017-07-18T22:37:16.900Z,51.17
2017-07-18T22:39:41.593Z,51.92
2017-07-18T22:42:06.280Z,52.31
2017-07-18T22:44:22.609Z,51.75
2017-07-18T22:46:47.401Z,51.36
2017-07-18T22:49:13.751Z,51.07
2017-07-18T22:51:38.427Z,51.84
2017-07-18T22:54:03.130Z,52.59
2017-07-18T22:56:27.792Z,52.01
2017-07-18T22:58:52.400Z,52.11
2017-07-18T23:01:17.113Z,51.92
2017-07-18T23:03:41.747Z,51.65
2017-07-18T23:05:57.912Z,51.72
2017-07-18T23:08:22.603Z,52.31
2017-07-18T23:10:24.105Z,52.89
2017-07-18T23:12:48.740Z,52.69
2017-07-18T23:15:13.360Z,53.25
2017-07-18T23:17:37.965Z,53.16
2017-07-18T23:20:02.554Z,52.79
2017-07-18T23:22:18.722Z,52.98
2017-07-18T23:24:43.432Z,52.86
2017-07-18T23:26:59.598Z,53.08
2017-07-18T23:29:24.232Z,52.79
2017-07-18T23:31:48.850Z,52.89
2017-07-18T23:34:13.507Z,53.47
2017-07-18T23:36:29.703Z,53.35
2017-07-18T23:38:45.826Z,53.64
2017-07-18T23:41:10.509Z,53.25
2017-07-18T23:43:35.108Z,54.13
2017-07-18T23:45:59.692Z,54.49
2017-07-18T23:48:09.798Z,53.74
2017-07-18T23:50:34.455Z,53.83
2017-07-18T23:52:59.098Z,53.67
2017-07-18T23:55:23.728Z,53.64
2017-07-18T23:57:48.413Z,53.64
